This is the latest recevied weather packets stored in our database for station/object GW1598. If no packets are shown the sender has not sent any weather packets the latest 10 day(s).
| Time | Temp. | Humidity | Pressure | Rain* | Wind** | Luminosity | Snow |
|---|---|---|---|---|---|---|---|
| 1777421908 | 21.11° C | 77% | 1008.1 hPa | 9.91 mm | - | - | - |
| 1777421013 | 22.22° C | 74% | 1008.1 hPa | 9.91 mm | - | - | - |
| 1777418847 | 23.89° C | 70% | 1006.4 hPa | 9.91 mm | - | - | - |
| 1777416343 | 24.44° C | 65% | 1007.4 hPa | 9.91 mm | - | - | - |
| 1777414910 | 25° C | 65% | 1007.4 hPa | 9.91 mm | - | - | - |
| 1777414553 | 25° C | 65% | 1007.4 hPa | 9.91 mm | - | - | - |
| 1777409148 | 25° C | 66% | 1008.1 hPa | 9.91 mm | - | - | - |
| 1777408035 | 23.89° C | 69% | 1008.4 hPa | 9.91 mm | - | - | - |
| 1777407340 | 23.89° C | 69% | 1008.4 hPa | 9.91 mm | - | - | - |
| 1777402990 | 23.33° C | 74% | 1009.1 hPa | 9.91 mm | - | - | - |
| 1777400860 | 22.78° C | 75% | 1009.1 hPa | 9.91 mm | - | - | - |
| 1777399047 | 21.67° C | 78% | 1009.4 hPa | 9.91 mm | - | - | - |
| 1777395096 | 20° C | 83% | 1009.8 hPa | 9.91 mm | - | - | - |
| 1777392593 | 18.89° C | 85% | 1009.8 hPa | 9.91 mm | - | - | - |
| 1777388784 | 17.78° C | 84% | 1009.1 hPa | 9.91 mm | - | - | - |
| 1777388451 | 17.78° C | 84% | 1009.1 hPa | 9.91 mm | - | - | - |
| 1777382664 | 16.11° C | 86% | 1008.8 hPa | 9.91 mm | - | - | - |
| 1777380158 | 15° C | 88% | 1008.4 hPa | 9.91 mm | - | - | - |
| 1777379789 | 15° C | 88% | 1008.4 hPa | 9.91 mm | - | - | - |
| 1777379443 | 15° C | 88% | 1008.4 hPa | 9.91 mm | - | - | - |
| 1777377651 | 14.44° C | 90% | 1007.7 hPa | 9.91 mm | - | - | - |
| 1777376930 | 13.89° C | 91% | 1007.7 hPa | 9.91 mm | - | - | - |
| 1777374051 | 14.44° C | 88% | 1007.4 hPa | 9.91 mm | - | - | - |
| 1777373323 | 14.44° C | 88% | 1006 hPa | 9.91 mm | - | - | - |
| 1777371886 | 13.89° C | 89% | 1005.7 hPa | 9.91 mm | - | - | - |
* Rain since midnight (hover to see other rain measurements)
** Current wind speed in m/s (hover to see current wind gust speed)